Terminal Aerodrome Forecast
Issued by NWS

Home | Current Version | Previous Version | Text Only | Print | Product List | Glossary On
Versions: 1 2 3 4 5 6 7 8 9 10 11 12 13
000
FTAK31 PAJN 282300
TAFAWG
TAF
PAWG 282326Z 0100/0124 32005KT P6SM BKN110
     FM010300 12005KT P6SM BKN090
     FM010900 12005KT P6SM BKN022 BKN080
     FM011200 12005KT 6SM -RA BR BKN020 OVC040
     FM011500 12005KT 4SM -RA BR BKN010 OVC020
     FM011900 34006KT P6SM BKN010
     FM012200 34007KT P6SM FEW015
      AMD LTD TO CLD VIS AND WIND 0106/0115=

USA.gov is the U.S. government's official web portal to all federal, state and local government web resources and services.